Time;durP1;ratioP1;P1;durP2;ratioP2;P2;SDS_P1;SDS_P2;PMS_P1;PMS_P2;Temp;Humidity;BMP_temperature;BMP_pressure;BME280_temperature;BME280_humidity;BME280_pressure;Samples;Min_cycle;Max_cycle;Signal;HPM_P1;HPM_P2
2023/02/05 00:01:27;;;;;;;0.00;0.00;;;;;;;1.63;52.73;95184.25;5050272;28;20189;-62
2023/02/05 00:03:53;;;;;;;0.00;0.00;;;;;;;0.95;53.29;95188.50;5050648;28;20211;-60
2023/02/05 00:06:20;;;;;;;0.00;0.00;;;;;;;1.78;52.27;95187.50;5050362;28;20661;-60
2023/02/05 00:08:47;;;;;;;0.00;0.00;;;;;;;0.96;53.48;95192.69;5050194;28;20735;-62
2023/02/05 00:11:14;;;;;;;0.00;0.00;;;;;;;1.41;53.01;95154.38;5049835;28;20212;-62
2023/02/05 00:13:42;;;;;;;0.00;0.00;;;;;;;1.71;51.91;95191.84;5050839;28;20220;-61
2023/02/05 00:16:11;;;;;;;0.00;0.00;;;;;;;1.73;51.30;95200.22;5050173;28;20189;-61
2023/02/05 00:18:38;;;;;;;0.00;0.00;;;;;;;1.84;51.00;95191.91;5050609;28;20220;-61
2023/02/05 00:21:05;;;;;;;0.00;0.00;;;;;;;1.51;50.64;95196.94;5049840;28;20298;-60
2023/02/05 00:23:33;;;;;;;0.00;0.00;;;;;;;1.43;50.58;95198.88;5050259;28;20192;-60
2023/02/05 00:26:00;;;;;;;0.00;0.00;;;;;;;1.68;49.81;95195.59;5050097;28;20690;-63
2023/02/05 00:28:27;;;;;;;0.00;0.00;;;;;;;1.84;49.35;95197.06;5050296;28;20220;-60
2023/02/05 00:30:54;;;;;;;0.00;0.00;;;;;;;1.98;49.15;95203.84;5050137;28;20208;-62
2023/02/05 00:33:21;;;;;;;0.00;0.00;;;;;;;1.38;50.18;95211.56;5049886;28;20631;-60
2023/02/05 00:35:48;;;;;;;0.00;0.00;;;;;;;1.50;49.38;95208.25;5048680;28;20201;-61
2023/02/05 00:38:16;;;;;;;0.00;0.00;;;;;;;1.43;49.44;95214.38;5050631;28;20196;-62
2023/02/05 00:40:43;;;;;;;0.00;0.00;;;;;;;1.19;50.06;95202.72;5050962;28;20273;-60
2023/02/05 00:43:10;;;;;;;0.00;0.00;;;;;;;1.67;49.22;95206.13;5048220;28;20197;-60
2023/02/05 00:45:36;;;;;;;0.00;0.00;;;;;;;1.90;48.93;95211.78;5048183;28;20231;-61
2023/02/05 00:48:04;;;;;;;0.00;0.00;;;;;;;1.81;49.25;95220.69;5050026;28;20576;-61
2023/02/05 00:50:32;;;;;;;0.00;0.00;;;;;;;0.65;50.99;95223.22;5049735;28;20199;-59
2023/02/05 00:52:59;;;;;;;0.00;0.00;;;;;;;1.33;49.85;95224.25;5049620;28;20272;-60
2023/02/05 00:55:26;;;;;;;0.00;0.00;;;;;;;1.56;50.38;95222.19;5049219;28;20191;-60
2023/02/05 00:57:53;;;;;;;0.00;0.00;;;;;;;0.97;51.27;95217.47;5048196;28;20200;-61
2023/02/05 01:00:20;;;;;;;0.00;0.00;;;;;;;0.90;51.00;95203.75;5047558;28;20254;-60
2023/02/05 01:02:47;;;;;;;0.00;0.00;;;;;;;1.20;51.36;95216.44;5049782;28;20200;-59
2023/02/05 01:05:14;;;;;;;0.00;0.00;;;;;;;0.91;51.96;95209.72;5049276;28;20277;-60
2023/02/05 01:07:41;;;;;;;0.00;0.00;;;;;;;0.78;51.91;95223.31;5047991;28;20318;-60
2023/02/05 01:10:08;;;;;;;0.00;0.00;;;;;;;1.35;51.27;95222.28;5047921;28;20227;-59
2023/02/05 01:12:35;;;;;;;0.00;0.00;;;;;;;1.39;50.26;95228.63;5048540;28;20269;-61
2023/02/05 01:15:04;;;;;;;0.00;0.00;;;;;;;1.12;51.42;95221.72;5048988;28;20196;-60
2023/02/05 01:17:32;;;;;;;0.00;0.00;;;;;;;1.88;49.79;95211.19;5049458;28;20228;-65
2023/02/05 01:19:59;;;;;;;0.00;0.00;;;;;;;0.85;51.45;95226.72;5048856;28;20258;-60
2023/02/05 01:22:26;;;;;;;0.00;0.00;;;;;;;0.96;51.91;95217.69;5049161;28;20196;-60
2023/02/05 01:24:53;;;;;;;0.00;0.00;;;;;;;0.83;51.71;95223.53;5048709;28;20242;-61
2023/02/05 01:27:20;;;;;;;0.00;0.00;;;;;;;1.06;51.97;95225.88;5048945;28;20656;-60
2023/02/05 01:29:47;;;;;;;0.00;0.00;;;;;;;1.10;51.58;95234.03;5049073;28;20231;-59
2023/02/05 01:32:14;;;;;;;0.00;0.00;;;;;;;0.99;50.74;95207.78;5035080;28;20263;-61
2023/02/05 01:34:41;;;;;;;0.00;0.00;;;;;;;1.08;50.59;95236.78;5049005;28;20605;-61
2023/02/05 01:37:07;;;;;;;0.00;0.00;;;;;;;1.01;51.14;95231.59;5048269;28;20207;-61
2023/02/05 01:39:36;;;;;;;0.00;0.00;;;;;;;1.09;50.85;95233.25;5049071;28;20204;-61
2023/02/05 01:42:13;;;;;;;0.00;0.00;;;;;;;1.15;50.15;95242.78;5048557;28;20196;-59
2023/02/05 01:44:40;;;;;;;0.00;0.00;;;;;;;1.02;50.27;95238.34;5049001;28;20575;-61
2023/02/05 01:47:07;;;;;;;0.00;0.00;;;;;;;1.36;49.70;95236.78;5047983;28;20240;-60
2023/02/05 01:49:37;;;;;;;0.00;0.00;;;;;;;1.71;49.20;95236.56;5048664;28;20578;-60
2023/02/05 01:52:10;;;;;;;0.90;0.70;;;;;;;1.02;49.76;95253.06;5048365;28;20275;-61
2023/02/05 01:54:42;;;;;;;0.00;0.00;;;;;;;0.96;50.21;95249.44;5048686;28;20228;-60
2023/02/05 01:57:15;;;;;;;0.05;0.05;;;;;;;1.13;49.56;95244.00;5046623;28;20916;-61
2023/02/05 01:59:44;;;;;;;0.00;0.00;;;;;;;1.50;48.78;95235.84;5047587;28;20204;-60
2023/02/05 02:02:11;;;;;;;0.00;0.00;;;;;;;1.31;48.98;95246.88;5047297;28;20254;-61
2023/02/05 02:05:01;;;;;;;0.00;0.00;;;;;;;1.38;49.35;95253.69;5048506;28;20197;-60
2023/02/05 02:07:28;;;;;;;0.00;0.00;;;;;;;1.22;49.05;95253.19;5046930;28;20284;-60
2023/02/05 02:09:55;;;;;;;0.00;0.00;;;;;;;1.39;48.99;95254.44;5046771;28;20199;-61
2023/02/05 02:12:28;;;;;;;0.00;0.00;;;;;;;1.55;49.18;95254.16;5047031;28;20270;-60
2023/02/05 02:15:00;;;;;;;0.00;0.00;;;;;;;1.36;49.12;95249.69;5047653;28;20192;-61
2023/02/05 02:17:28;;;;;;;0.00;0.00;;;;;;;1.03;49.39;95254.63;5048546;28;20592;-63
2023/02/05 02:20:05;;;;;;;0.00;0.00;;;;;;;1.08;49.18;95262.59;5048173;28;20349;-60
2023/02/05 02:22:32;;;;;;;0.00;0.00;;;;;;;0.89;50.17;95261.47;5048664;28;20228;-61
2023/02/05 02:25:31;;;;;;;0.90;0.25;;;;;;;1.13;49.60;95269.78;5046307;28;20269;-62
2023/02/05 02:28:23;;;;;;;0.00;0.00;;;;;;;1.22;50.29;95258.34;5063187;28;20208;-62
2023/02/05 02:31:09;;;;;;;0.13;0.13;;;;;;;1.06;49.79;95268.94;5036684;28;20643;-62
2023/02/05 02:33:49;;;;;;;0.00;0.00;;;;;;;1.41;49.81;95267.97;5047862;28;20303;-60
2023/02/05 02:36:46;;;;;;;0.00;0.00;;;;;;;0.96;50.89;95264.91;5046052;28;20204;-61
2023/02/05 02:39:20;;;;;;;0.00;0.00;;;;;;;0.61;51.19;95270.16;5048003;28;20197;-62
2023/02/05 02:41:55;;;;;;;0.00;0.00;;;;;;;0.90;50.51;95270.00;5046511;28;20203;-60
2023/02/05 02:44:48;;;;;;;0.00;0.00;;;;;;;1.12;50.39;95278.50;5046993;28;20737;-61
2023/02/05 02:47:19;;;;;;;0.00;0.00;;;;;;;1.36;50.24;95280.66;5046753;28;20277;-62
2023/02/05 02:50:00;;;;;;;0.00;0.00;;;;;;;1.47;49.80;95272.38;5047723;28;20284;-61
2023/02/05 02:52:32;;;;;;;0.00;0.00;;;;;;;1.44;49.18;95278.72;5048120;28;20201;-60
2023/02/05 02:55:06;;;;;;;0.00;0.00;;;;;;;1.18;49.83;95285.50;5047307;28;20276;-61
2023/02/05 02:57:38;;;;;;;0.00;0.00;;;;;;;1.42;49.82;95279.91;5046132;28;20224;-61
2023/02/05 03:00:12;;;;;;;0.00;0.00;;;;;;;1.65;49.03;95280.44;5047257;28;20196;-59
2023/02/05 03:02:42;;;;;;;0.00;0.00;;;;;;;1.08;49.75;95283.25;5046067;28;20201;-61
2023/02/05 03:05:14;;;;;;;0.00;0.00;;;;;;;1.23;49.80;95288.31;5045948;28;20259;-60
2023/02/05 03:08:01;;;;;;;0.00;0.00;;;;;;;0.66;50.50;95299.56;5033695;28;20210;-60
2023/02/05 03:10:43;;;;;;;0.00;0.00;;;;;;;0.81;50.73;95302.88;5047607;28;20197;-60
2023/02/05 03:13:13;;;;;;;0.10;0.10;;;;;;;1.10;50.51;95301.13;5047659;28;20656;-61
2023/02/05 03:15:46;;;;;;;0.00;0.00;;;;;;;1.19;50.39;95298.22;5033202;28;20200;-61
2023/02/05 03:18:17;;;;;;;0.75;0.75;;;;;;;0.91;50.56;95303.34;5046326;28;20577;-61
2023/02/05 03:20:52;;;;;;;0.00;0.00;;;;;;;1.12;50.39;95304.31;5048025;28;20258;-61
2023/02/05 03:23:19;;;;;;;0.47;0.47;;;;;;;0.83;51.17;95306.09;5047619;28;20185;-60
2023/02/05 03:25:46;;;;;;;0.00;0.00;;;;;;;1.00;51.18;95307.41;5046900;28;20204;-59
2023/02/05 03:28:16;;;;;;;0.00;0.00;;;;;;;0.45;51.77;95312.47;5045833;28;20239;-60
2023/02/05 03:31:17;;;;;;;0.00;0.00;;;;;;;0.91;51.59;95313.69;5045951;28;20599;-60
2023/02/05 03:34:09;;;;;;;0.00;0.00;;;;;;;0.77;52.03;95313.75;5047141;28;20323;-61
2023/02/05 03:36:55;;;;;;;0.85;0.50;;;;;;;0.76;51.50;95315.56;5050549;28;20694;-61
2023/02/05 03:39:34;;;;;;;0.00;0.00;;;;;;;1.06;51.33;95316.19;5050729;28;20201;-60
2023/02/05 03:42:11;;;;;;;0.00;0.00;;;;;;;0.39;52.56;95323.50;5051352;28;20311;-60
2023/02/05 03:45:07;;;;;;;0.00;0.00;;;;;;;0.45;52.17;95321.97;5049923;28;20200;-62
2023/02/05 03:47:46;;;;;;;0.00;0.00;;;;;;;1.17;51.07;95317.47;5050088;28;20319;-61
2023/02/05 03:50:27;;;;;;;0.00;0.00;;;;;;;1.23;50.88;95314.13;5049578;28;20217;-60
2023/02/05 03:53:17;;;;;;;0.00;0.00;;;;;;;0.89;51.29;95322.59;5049095;28;20663;-60
2023/02/05 03:55:51;;;;;;;0.00;0.00;;;;;;;0.66;51.49;95321.97;5050190;28;20342;-60
2023/02/05 03:58:40;;;;;;;0.00;0.00;;;;;;;0.19;52.91;95340.53;5050315;28;20307;-59
2023/02/05 04:01:10;;;;;;;0.00;0.00;;;;;;;0.14;52.88;95336.88;5048637;28;20217;-60
2023/02/05 04:03:38;;;;;;;0.00;0.00;;;;;;;0.18;52.16;95341.53;5051139;28;20197;-61
2023/02/05 04:06:06;;;;;;;0.00;0.00;;;;;;;0.61;51.65;95338.00;5039867;28;20209;-61
2023/02/05 04:08:34;;;;;;;0.73;0.57;;;;;;;1.24;50.49;95344.13;5049005;28;20250;-60
2023/02/05 04:11:02;;;;;;;0.00;0.00;;;;;;;0.82;50.89;95345.75;5048588;28;20198;-61
2023/02/05 04:13:29;;;;;;;0.00;0.00;;;;;;;0.73;50.99;95340.91;5049157;28;20204;-61
2023/02/05 04:15:57;;;;;;;0.00;0.00;;;;;;;0.35;52.50;95352.38;5048759;28;20729;-60
2023/02/05 04:18:23;;;;;;;0.00;0.00;;;;;;;0.31;52.51;95341.63;5048700;28;20201;-60
2023/02/05 04:20:50;;;;;;;0.00;0.00;;;;;;;0.61;51.59;95340.59;5048640;28;20204;-61
2023/02/05 04:23:21;;;;;;;1.65;0.68;;;;;;;0.14;52.66;95344.63;5048766;28;20270;-60
2023/02/05 04:25:53;;;;;;;0.00;0.00;;;;;;;0.84;51.46;95346.34;5048331;28;20209;-61
2023/02/05 04:28:27;;;;;;;0.05;0.05;;;;;;;0.56;51.66;95335.19;5048909;28;20201;-61
2023/02/05 04:30:54;;;;;;;0.00;0.00;;;;;;;0.61;51.48;95338.00;5048055;28;20223;-61
2023/02/05 04:33:21;;;;;;;0.00;0.00;;;;;;;0.38;52.39;95352.84;5048807;28;20236;-61
2023/02/05 04:35:48;;;;;;;0.00;0.00;;;;;;;-0.08;57.14;95356.63;5048125;28;20197;-60
2023/02/05 04:38:15;;;;;;;0.00;0.00;;;;;;;0.30;52.70;95347.78;5048596;28;20745;-61
2023/02/05 04:40:43;;;;;;;0.08;0.08;;;;;;;0.18;52.84;95356.16;5049564;28;20216;-60
2023/02/05 04:43:10;;;;;;;0.00;0.00;;;;;;;0.24;52.39;95351.09;5050414;28;20201;-61
2023/02/05 04:45:37;;;;;;;0.00;0.00;;;;;;;0.15;52.92;95362.47;5049490;28;20201;-60
2023/02/05 04:48:05;;;;;;;0.00;0.00;;;;;;;0.08;52.89;95364.16;5049313;28;20287;-61
2023/02/05 04:50:32;;;;;;;0.00;0.00;;;;;;;0.07;53.00;95365.16;5049577;28;20781;-59
2023/02/05 04:53:02;;;;;;;0.00;0.00;;;;;;;0.08;52.94;95365.94;5049914;28;20212;-60
2023/02/05 04:55:30;;;;;;;3.45;3.22;;;;;;;0.71;51.41;95364.28;5049588;28;20274;-61
2023/02/05 04:57:57;;;;;;;0.00;0.00;;;;;;;0.23;53.13;95375.25;5050380;28;20219;-61
2023/02/05 05:00:25;;;;;;;0.00;0.00;;;;;;;0.51;52.02;95373.59;5049271;28;20622;-60
2023/02/05 05:02:52;;;;;;;0.00;0.00;;;;;;;0.24;52.43;95376.84;5036705;28;20215;-61
2023/02/05 05:05:18;;;;;;;0.00;0.00;;;;;;;0.49;51.68;95378.16;5048914;28;20713;-60
2023/02/05 05:07:45;;;;;;;0.08;0.08;;;;;;;-0.11;53.17;95387.91;5049390;28;20220;-60
2023/02/05 05:10:12;;;;;;;0.75;0.20;;;;;;;0.45;52.64;95379.50;5049539;28;20638;-60
2023/02/05 05:12:39;;;;;;;0.00;0.00;;;;;;;0.09;53.27;95383.81;5049790;28;20215;-60
2023/02/05 05:15:06;;;;;;;0.00;0.00;;;;;;;0.23;53.03;95384.75;5048246;28;20732;-60
2023/02/05 05:17:34;;;;;;;0.00;0.00;;;;;;;0.67;51.76;95394.03;5049452;28;20200;-59
2023/02/05 05:20:01;;;;;;;0.65;0.65;;;;;;;-0.08;52.74;95388.34;5048679;28;20197;-60
2023/02/05 05:22:28;;;;;;;0.03;0.03;;;;;;;0.48;51.88;95386.84;5049426;28;20200;-59
2023/02/05 05:24:54;;;;;;;0.00;0.00;;;;;;;0.07;52.37;95393.50;5048728;28;20232;-59
2023/02/05 05:27:23;;;;;;;0.00;0.00;;;;;;;0.27;52.35;95399.69;5049347;28;20563;-61
2023/02/05 05:29:51;;;;;;;0.00;0.00;;;;;;;-0.01;52.90;95398.72;5048800;28;20207;-60
2023/02/05 05:32:17;;;;;;;1.35;1.25;;;;;;;0.46;52.62;95416.34;5048920;28;20264;-60
2023/02/05 05:34:44;;;;;;;0.00;0.00;;;;;;;0.02;52.30;95413.03;5048947;28;20200;-59
2023/02/05 05:37:11;;;;;;;0.00;0.00;;;;;;;-0.08;52.66;95418.47;5048628;28;20219;-61
2023/02/05 05:45:09;;;;;;;1.95;1.35;;;;;;;0.13;52.70;95410.81;5048540;28;20200;-60
2023/02/05 05:47:35;;;;;;;0.00;0.00;;;;;;;-0.08;52.81;95428.75;5048920;28;20212;-62
2023/02/05 05:50:02;;;;;;;0.00;0.00;;;;;;;0.37;52.65;95418.25;5048645;28;20209;-59
2023/02/05 05:52:29;;;;;;;0.00;0.00;;;;;;;0.41;52.15;95437.53;5048680;28;20197;-59
2023/02/05 05:54:58;;;;;;;0.00;0.00;;;;;;;0.08;53.22;95436.31;5048438;28;20662;-61
2023/02/05 05:57:25;;;;;;;1.08;0.73;;;;;;;-0.09;53.10;95443.41;5048452;28;20262;-61
2023/02/05 05:59:52;;;;;;;0.00;0.00;;;;;;;-0.18;53.50;95434.16;5048891;28;20200;-61
2023/02/05 06:02:19;;;;;;;0.00;0.00;;;;;;;0.53;52.18;95443.03;5048457;28;20193;-60
2023/02/05 06:04:45;;;;;;;0.00;0.00;;;;;;;-0.09;52.79;95437.44;5048522;28;20667;-59
2023/02/05 06:07:12;;;;;;;0.00;0.00;;;;;;;-0.12;53.66;95433.47;5047957;28;20216;-60
2023/02/05 06:09:39;;;;;;;0.32;0.32;;;;;;;0.04;52.81;95458.25;5048809;28;20220;-60
2023/02/05 06:12:06;;;;;;;0.00;0.00;;;;;;;0.00;52.56;95454.44;5047909;28;20217;-60
2023/02/05 06:14:33;;;;;;;0.20;0.20;;;;;;;0.19;52.78;95456.47;5048662;28;20205;-60
2023/02/05 06:17:00;;;;;;;0.00;0.00;;;;;;;0.14;52.22;95458.00;5047321;28;20272;-60
2023/02/05 06:19:27;;;;;;;0.00;0.00;;;;;;;0.31;52.47;95455.03;5048583;28;20208;-60
2023/02/05 06:21:53;;;;;;;0.00;0.00;;;;;;;0.27;51.93;95461.56;5048000;28;20738;-60
2023/02/05 06:24:20;;;;;;;0.00;0.00;;;;;;;-0.13;53.41;95462.75;5048809;28;20755;-60
2023/02/05 06:26:47;;;;;;;0.00;0.00;;;;;;;-0.02;53.01;95474.44;5047808;28;20208;-60
2023/02/05 06:29:14;;;;;;;0.00;0.00;;;;;;;0.52;51.92;95478.34;5049131;28;20204;-61
2023/02/05 06:31:41;;;;;;;0.00;0.00;;;;;;;0.04;52.50;95478.06;5047147;28;20200;-61
2023/02/05 06:34:07;;;;;;;0.00;0.00;;;;;;;0.28;52.60;95491.50;5048516;28;20287;-60
2023/02/05 06:36:34;;;;;;;0.00;0.00;;;;;;;0.21;52.16;95500.09;5047289;28;20280;-60
2023/02/05 06:39:01;;;;;;;0.00;0.00;;;;;;;-0.10;52.72;95505.41;5048281;28;20560;-61
2023/02/05 06:41:28;;;;;;;0.00;0.00;;;;;;;0.22;51.99;95491.41;5047463;28;20204;-60
2023/02/05 06:43:55;;;;;;;0.00;0.00;;;;;;;0.21;51.73;95493.19;5048555;28;20224;-62
2023/02/05 06:46:21;;;;;;;0.00;0.00;;;;;;;0.66;50.80;95498.13;5047182;28;20197;-60
2023/02/05 06:48:48;;;;;;;0.00;0.00;;;;;;;0.21;51.94;95494.94;5048402;28;20184;-60
2023/02/05 06:51:15;;;;;;;0.00;0.00;;;;;;;0.35;51.81;95507.84;5047813;28;20197;-60
2023/02/05 06:53:42;;;;;;;0.00;0.00;;;;;;;0.78;50.63;95504.47;5048198;28;20193;-60
2023/02/05 06:56:09;;;;;;;0.00;0.00;;;;;;;0.74;50.67;95513.53;5046153;28;20200;-61
2023/02/05 06:58:36;;;;;;;0.00;0.00;;;;;;;0.93;55.69;95512.16;5045056;28;20307;-63
2023/02/05 07:01:03;;;;;;;0.00;0.00;;;;;;;1.14;51.82;95512.19;5044574;28;20709;-60
2023/02/05 07:03:30;;;;;;;0.00;0.00;;;;;;;0.67;51.34;95511.84;5030993;28;20216;-61
2023/02/05 07:06:04;;;;;;;0.00;0.00;;;;;;;0.88;51.07;95512.69;5047123;28;20203;-61
2023/02/05 07:08:32;;;;;;;0.00;0.00;;;;;;;0.60;50.24;95516.91;5047060;28;20243;-61
2023/02/05 07:10:59;;;;;;;0.00;0.00;;;;;;;0.99;50.26;95527.72;5050045;28;20204;-61
2023/02/05 07:13:28;;;;;;;0.00;0.00;;;;;;;0.89;50.43;95531.56;5051537;28;20691;-60
2023/02/05 07:15:56;;;;;;;0.00;0.00;;;;;;;1.32;49.34;95540.97;5051321;28;20806;-61
2023/02/05 07:18:23;;;;;;;1.15;0.65;;;;;;;0.95;50.13;95534.22;5050430;28;20189;-62
2023/02/05 07:20:50;;;;;;;0.00;0.00;;;;;;;0.86;50.28;95532.72;5038995;28;20204;-60
2023/02/05 07:23:17;;;;;;;0.00;0.00;;;;;;;1.47;49.96;95551.25;5051672;28;20539;-67
2023/02/05 07:25:44;;;;;;;0.57;0.57;;;;;;;1.58;48.72;95537.88;5050677;28;20208;-65
2023/02/05 07:28:11;;;;;;;0.00;0.00;;;;;;;2.11;49.10;95541.69;5064127;28;20216;-68
2023/02/05 07:30:37;;;;;;;0.08;0.08;;;;;;;2.26;50.42;95543.22;5050156;28;20192;-62
2023/02/05 07:33:04;;;;;;;0.00;0.00;;;;;;;2.11;48.34;95547.69;5050585;28;20232;-66
2023/02/05 07:35:35;;;;;;;0.65;0.38;;;;;;;2.00;48.30;95550.75;5051403;28;20233;-67
2023/02/05 07:38:02;;;;;;;0.22;0.22;;;;;;;2.08;48.48;95551.41;5050555;28;20303;-67
2023/02/05 07:40:30;;;;;;;0.00;0.00;;;;;;;2.40;47.28;95541.50;5050615;28;20231;-67
2023/02/05 07:42:58;;;;;;;0.77;0.73;;;;;;;2.02;48.77;95535.88;5050624;28;20200;-67
2023/02/05 07:45:24;;;;;;;0.55;0.55;;;;;;;1.65;49.18;95555.03;5050308;28;20742;-66
2023/02/05 07:47:52;;;;;;;0.28;0.28;;;;;;;2.44;48.02;95553.88;5050560;28;20243;-69
2023/02/05 07:50:19;;;;;;;0.00;0.00;;;;;;;2.51;47.50;95561.69;5050383;28;20196;-65
2023/02/05 07:52:46;;;;;;;0.20;0.20;;;;;;;2.69;47.27;95555.03;5051186;28;20291;-65
2023/02/05 07:55:13;;;;;;;0.00;0.00;;;;;;;2.67;47.21;95562.19;5047158;28;20192;-65
2023/02/05 07:57:40;;;;;;;0.00;0.00;;;;;;;2.44;47.85;95566.81;5050344;28;20283;-68
2023/02/05 08:00:08;;;;;;;0.00;0.00;;;;;;;2.21;47.78;95566.22;5046254;28;20193;-65
2023/02/05 08:02:38;;;;;;;0.00;0.00;;;;;;;2.04;47.91;95567.50;5048580;28;20193;-63
2023/02/05 08:05:06;;;;;;;0.00;0.00;;;;;;;2.08;48.38;95576.47;5050548;28;20296;-65
2023/02/05 08:07:33;;;;;;;0.00;0.00;;;;;;;2.41;47.66;95572.34;5050772;28;20315;-67
2023/02/05 08:09:59;;;;;;;0.38;0.38;;;;;;;2.09;48.03;95578.06;5050039;28;20258;-69
2023/02/05 08:12:26;;;;;;;0.20;0.20;;;;;;;2.73;47.06;95576.94;5050190;28;20834;-65
2023/02/05 08:14:53;;;;;;;1.75;1.50;;;;;;;2.88;48.51;95580.19;5050247;28;20653;-66
2023/02/05 08:17:20;;;;;;;2.03;1.85;;;;;;;2.71;47.23;95578.94;5050130;28;20196;-64
2023/02/05 08:19:49;;;;;;;0.00;0.00;;;;;;;2.44;46.11;95582.34;5050236;28;20201;-68
2023/02/05 08:22:15;;;;;;;0.00;0.00;;;;;;;2.40;46.80;95588.88;5050680;28;20303;-67
2023/02/05 08:24:42;;;;;;;1.65;1.55;;;;;;;2.60;46.25;95565.72;5050370;28;20201;-69
2023/02/05 08:27:09;;;;;;;0.00;0.00;;;;;;;2.36;46.70;95590.22;5049925;28;20575;-67
2023/02/05 08:29:36;;;;;;;0.00;0.00;;;;;;;2.85;44.96;95590.94;5049659;28;20210;-68
2023/02/05 08:32:04;;;;;;;0.00;0.00;;;;;;;2.43;43.81;95601.41;5049606;28;20227;-68
2023/02/05 08:34:30;;;;;;;0.00;0.00;;;;;;;2.33;44.23;95590.59;5049814;28;20216;-69
2023/02/05 08:36:58;;;;;;;0.00;0.00;;;;;;;2.58;43.00;95598.72;5049689;28;20200;-69
2023/02/05 08:39:25;;;;;;;0.00;0.00;;;;;;;2.15;43.11;95600.59;5049553;28;20197;-67
2023/02/05 08:41:52;;;;;;;0.00;0.00;;;;;;;2.63;43.59;95597.19;5048150;28;20221;-65
2023/02/05 08:44:22;;;;;;;0.00;0.00;;;;;;;2.66;43.16;95602.00;5050059;28;20645;-64
2023/02/05 08:46:49;;;;;;;0.00;0.00;;;;;;;3.07;42.08;95592.47;5048734;28;20526;-67
2023/02/05 08:49:16;;;;;;;0.38;0.38;;;;;;;2.87;41.99;95604.50;5046793;28;20268;-66
2023/02/05 08:51:43;;;;;;;0.00;0.00;;;;;;;2.89;41.69;95593.94;5048457;28;20279;-69
2023/02/05 08:54:12;;;;;;;0.00;0.00;;;;;;;3.07;43.81;95595.03;5049862;28;20219;-69
2023/02/05 08:56:42;;;;;;;0.00;0.00;;;;;;;2.59;42.39;95606.28;5048232;28;20250;-68
2023/02/05 08:59:09;;;;;;;0.00;0.00;;;;;;;2.76;41.96;95602.44;5049676;28;20291;-69
2023/02/05 09:01:39;;;;;;;0.10;0.10;;;;;;;3.00;42.67;95609.75;5049065;28;20200;-67
2023/02/05 09:04:06;;;;;;;0.00;0.00;;;;;;;3.20;42.60;95609.84;5049757;28;20531;-68
2023/02/05 09:06:34;;;;;;;0.00;0.00;;;;;;;3.58;41.28;95613.56;5049173;28;20374;-69
2023/02/05 09:09:01;;;;;;;0.10;0.10;;;;;;;2.99;40.62;95618.50;5048889;28;20683;-67
2023/02/05 09:11:29;;;;;;;0.00;0.00;;;;;;;2.71;41.47;95625.50;5049081;28;20193;-69
2023/02/05 09:13:57;;;;;;;0.00;0.00;;;;;;;3.36;40.62;95608.72;5049408;28;20227;-69
2023/02/05 09:16:25;;;;;;;0.00;0.00;;;;;;;3.74;40.81;95615.81;5049036;28;20331;-68
2023/02/05 09:18:54;;;;;;;0.00;0.00;;;;;;;3.81;40.57;95629.59;5048642;28;20196;-64
2023/02/05 09:21:21;;;;;;;0.00;0.00;;;;;;;3.56;40.59;95627.75;5047182;28;20224;-69
2023/02/05 09:23:48;;;;;;;1.13;1.10;;;;;;;3.68;40.16;95626.19;5048795;28;20724;-66
2023/02/05 09:26:15;;;;;;;0.00;0.00;;;;;;;3.47;43.48;95631.47;5048737;28;20227;-69
2023/02/05 09:28:42;;;;;;;0.43;0.40;;;;;;;3.34;40.87;95631.44;5048398;28;20224;-65
2023/02/05 09:31:14;;;;;;;0.17;0.17;;;;;;;3.76;39.82;95634.56;5047323;28;20303;-67
2023/02/05 09:33:42;;;;;;;0.00;0.00;;;;;;;3.61;39.99;95633.13;5048023;28;20225;-66
2023/02/05 09:36:20;;;;;;;0.20;0.20;;;;;;;3.43;39.57;95644.00;5048788;28;20199;-68
2023/02/05 09:38:48;;;;;;;0.00;0.00;;;;;;;3.71;39.70;95646.50;5046242;28;20307;-64
2023/02/05 09:41:42;;;;;;;0.00;0.00;;;;;;;3.39;39.62;95642.00;5048297;28;20573;-68
2023/02/05 09:44:15;;;;;;;0.00;0.00;;;;;;;3.51;39.80;95653.41;5048575;28;20292;-65
2023/02/05 09:46:45;;;;;;;0.03;0.03;;;;;;;3.69;41.86;95648.50;5047974;28;20311;-67
2023/02/05 09:49:26;;;;;;;0.03;0.03;;;;;;;3.59;40.08;95642.88;5049028;28;20330;-67
2023/02/05 09:52:18;;;;;;;0.05;0.05;;;;;;;3.81;39.53;95646.94;5048297;28;20204;-66
2023/02/05 09:54:53;;;;;;;0.00;0.00;;;;;;;3.58;39.77;95644.66;5036372;28;20192;-66
2023/02/05 09:57:42;;;;;;;0.00;0.00;;;;;;;3.57;39.10;95647.47;5045294;28;20254;-66
2023/02/05 10:00:29;;;;;;;0.10;0.10;;;;;;;3.55;39.60;95639.88;5036274;28;20721;-67
2023/02/05 10:03:16;;;;;;;0.00;0.00;;;;;;;3.89;39.32;95646.75;5033365;28;20254;-66
2023/02/05 10:06:30;;;;;;;0.10;0.10;;;;;;;3.85;38.92;95642.97;5045374;28;20262;-67
2023/02/05 10:09:42;;;;;;;0.08;0.08;;;;;;;3.64;39.19;95641.31;5047196;28;20216;-69
2023/02/05 10:12:31;;;;;;;0.00;0.00;;;;;;;3.61;38.48;95643.50;5047888;28;20192;-70
2023/02/05 10:15:39;;;;;;;0.00;0.00;;;;;;;3.27;39.42;95648.72;5047792;28;20223;-69
2023/02/05 10:18:24;;;;;;;0.00;0.00;;;;;;;3.52;39.32;95655.81;5058284;28;20988;-70
2023/02/05 10:21:10;;;;;;;0.00;0.00;;;;;;;2.63;38.50;95658.47;5038237;28;20196;-66
2023/02/05 10:24:11;;;;;;;0.00;0.00;;;;;;;2.62;39.43;95652.50;5048164;28;20192;-68
2023/02/05 10:26:49;;;;;;;0.00;0.00;;;;;;;3.18;39.18;95655.03;5047267;28;20193;-69
2023/02/05 10:29:46;;;;;;;0.00;0.00;;;;;;;3.85;38.63;95651.53;5047476;28;20733;-68
2023/02/05 10:32:28;;;;;;;0.28;0.28;;;;;;;3.72;38.52;95648.91;5047290;28;20690;-67
2023/02/05 10:34:58;;;;;;;1.08;0.52;;;;;;;3.05;39.61;95659.16;5046556;28;20196;-72
2023/02/05 10:37:44;;;;;;;0.00;0.00;;;;;;;3.43;38.04;95651.00;5033388;28;20185;-71
2023/02/05 10:40:15;;;;;;;0.00;0.00;;;;;;;3.29;37.90;95660.50;5045393;28;20343;-71
2023/02/05 10:42:59;;;;;;;0.00;0.00;;;;;;;3.51;38.17;95653.41;5046474;28;20269;-71
2023/02/05 10:45:28;;;;;;;0.00;0.00;;;;;;;2.78;37.95;95652.22;5036678;28;20195;-73
2023/02/05 10:48:00;;;;;;;0.00;0.00;;;;;;;2.87;38.32;95656.25;5050975;28;20705;-68
2023/02/05 10:50:42;;;;;;;0.00;0.00;;;;;;;3.12;38.02;95658.41;5041823;28;20219;-70
2023/02/05 10:53:09;;;;;;;0.00;0.00;;;;;;;2.90;38.78;95655.88;5051946;28;20203;-70
2023/02/05 10:55:36;;;;;;;0.00;0.00;;;;;;;3.06;38.71;95650.41;5051938;28;20200;-71
2023/02/05 10:58:34;;;;;;;0.00;0.00;;;;;;;3.59;38.44;95637.72;5038974;28;20677;-66
2023/02/05 11:01:02;;;;;;;0.00;0.00;;;;;;;3.06;37.16;95650.41;5051150;28;20749;-68
2023/02/05 11:03:29;;;;;;;0.00;0.00;;;;;;;3.36;37.71;95652.75;5051876;28;20595;-69
2023/02/05 11:05:57;;;;;;;0.10;0.10;;;;;;;3.00;37.50;95648.59;5050764;28;20286;-69
2023/02/05 11:08:34;;;;;;;0.00;0.00;;;;;;;3.37;36.96;95651.75;5051662;28;20226;-71
2023/02/05 11:11:02;;;;;;;0.00;0.00;;;;;;;2.90;37.10;95662.88;5039053;28;20568;-65
2023/02/05 11:13:30;;;;;;;0.00;0.00;;;;;;;2.82;37.07;95657.81;5051661;28;20203;-66
2023/02/05 11:16:00;;;;;;;0.10;0.10;;;;;;;3.25;36.88;95655.91;5051309;28;20246;-73
2023/02/05 11:18:31;;;;;;;0.28;0.28;;;;;;;3.25;36.40;95653.31;5051129;28;20269;-69
2023/02/05 11:21:01;;;;;;;0.00;0.00;;;;;;;3.21;37.04;95652.09;5051163;28;20252;-68
2023/02/05 11:23:31;;;;;;;0.00;0.00;;;;;;;2.83;36.16;95662.00;5051903;28;20334;-67
2023/02/05 11:26:00;;;;;;;3.60;0.45;;;;;;;2.87;36.89;95660.63;5051594;28;21071;-69
2023/02/05 11:28:29;;;;;;;0.10;0.10;;;;;;;3.16;36.61;95657.03;5051106;28;20213;-68
2023/02/05 11:30:57;;;;;;;0.00;0.00;;;;;;;3.47;36.77;95665.16;5050912;28;20188;-69
2023/02/05 11:33:27;;;;;;;0.00;0.00;;;;;;;3.77;36.63;95663.88;5050664;28;20239;-66
2023/02/05 11:36:03;;;;;;;0.00;0.00;;;;;;;3.76;36.38;95654.53;5050926;28;20208;-71
2023/02/05 11:38:33;;;;;;;0.00;0.00;;;;;;;3.68;35.92;95649.50;5051435;28;20679;-68
2023/02/05 11:41:11;;;;;;;0.00;0.00;;;;;;;3.47;36.35;95652.19;5050416;28;20204;-69
2023/02/05 11:43:51;;;;;;;0.00;0.00;;;;;;;3.74;35.13;95643.53;5039131;28;20211;-71
2023/02/05 11:46:21;;;;;;;2.38;2.17;;;;;;;3.64;36.08;95653.47;5049800;28;20197;-65
2023/02/05 11:48:51;;;;;;;0.20;0.20;;;;;;;4.05;35.61;95651.59;5048959;28;20216;-66
2023/02/05 11:51:27;;;;;;;0.00;0.00;;;;;;;4.35;35.41;95650.25;5044015;28;20632;-65
2023/02/05 11:54:00;;;;;;;0.00;0.00;;;;;;;4.38;34.94;95649.06;5046940;28;20204;-65
2023/02/05 11:56:27;;;;;;;0.10;0.10;;;;;;;4.70;35.27;95649.06;5045508;28;20238;-65
2023/02/05 11:58:58;;;;;;;0.25;0.20;;;;;;;4.37;34.17;95655.22;5046755;28;20247;-66
2023/02/05 12:01:31;;;;;;;0.10;0.10;;;;;;;3.90;33.64;95658.75;5047389;28;20628;-65
2023/02/05 12:03:58;;;;;;;0.00;0.00;;;;;;;4.35;33.86;95646.84;5047990;28;20199;-66
2023/02/05 12:06:42;;;;;;;0.00;0.00;;;;;;;4.81;34.00;95645.84;5050484;28;20205;-67